sensor_id;sensor_type;location;lat;lon;timestamp;temperature;humidity
3699;DHT22;1865;50.918;7.092;2023-12-20T11:45:15;21.60;49.70
3699;DHT22;1865;50.918;7.092;2023-12-20T11:47:42;21.30;48.50
3699;DHT22;1865;50.918;7.092;2023-12-20T11:50:08;21.20;49.00
3699;DHT22;1865;50.918;7.092;2023-12-20T11:52:34;21.10;49.30
3699;DHT22;1865;50.918;7.092;2023-12-20T11:55:00;21.10;49.90
3699;DHT22;1865;50.918;7.092;2023-12-20T11:57:25;21.10;50.10
3699;DHT22;1865;50.918;7.092;2023-12-20T11:59:51;21.10;50.10
3699;DHT22;1865;50.918;7.092;2023-12-20T12:02:16;21.10;50.20
3699;DHT22;1865;50.918;7.092;2023-12-20T12:04:42;21.10;50.20
3699;DHT22;1865;50.918;7.092;2023-12-20T12:07:07;21.10;50.70
3699;DHT22;1865;50.918;7.092;2023-12-20T12:09:33;21.10;50.70
3699;DHT22;1865;50.918;7.092;2023-12-20T12:11:58;21.10;50.90
3699;DHT22;1865;50.918;7.092;2023-12-20T12:14:24;21.20;50.90
3699;DHT22;1865;50.918;7.092;2023-12-20T12:16:50;21.20;50.90
3699;DHT22;1865;50.918;7.092;2023-12-20T12:19:22;21.20;51.10
3699;DHT22;1865;50.918;7.092;2023-12-20T12:21:49;21.20;51.60
3699;DHT22;1865;50.918;7.092;2023-12-20T12:24:14;21.20;52.10
3699;DHT22;1865;50.918;7.092;2023-12-20T12:26:40;21.20;52.60
3699;DHT22;1865;50.918;7.092;2023-12-20T12:29:08;21.20;52.80
3699;DHT22;1865;50.918;7.092;2023-12-20T12:31:35;21.10;53.20
3699;DHT22;1865;50.918;7.092;2023-12-20T12:34:01;21.10;52.60
3699;DHT22;75064;50.922;7.094;2023-12-20T12:36:27;21.00;52.90
3699;DHT22;75064;50.922;7.094;2023-12-20T12:38:53;21.10;52.90
3699;DHT22;75064;50.922;7.094;2023-12-20T12:42:28;21.40;54.80
3699;DHT22;75064;50.922;7.094;2023-12-20T12:44:54;21.20;52.30
3699;DHT22;75064;50.922;7.094;2023-12-20T12:48:50;21.80;54.40
3699;DHT22;75064;50.922;7.094;2023-12-20T12:51:16;21.80;50.70
3699;DHT22;75064;50.922;7.094;2023-12-20T12:53:41;21.40;51.40
3699;DHT22;75064;50.922;7.094;2023-12-20T12:56:07;21.30;52.50
3699;DHT22;75064;50.922;7.094;2023-12-20T12:58:33;21.80;52.50
3699;DHT22;75064;50.922;7.094;2023-12-20T13:00:59;21.60;51.00
3699;DHT22;75064;50.922;7.094;2023-12-20T13:03:24;21.50;51.50
3699;DHT22;75064;50.922;7.094;2023-12-20T13:05:50;21.50;51.20
3699;DHT22;75064;50.922;7.094;2023-12-20T13:44:45;21.70;58.10
3699;DHT22;75064;50.922;7.094;2023-12-20T13:47:10;21.40;51.00
3699;DHT22;75064;50.922;7.094;2023-12-20T17:48:04;20.70;51.10
3699;DHT22;75064;50.922;7.094;2023-12-20T17:50:30;21.00;50.90
3699;DHT22;75064;50.922;7.094;2023-12-20T17:52:56;20.90;50.60
3699;DHT22;75064;50.922;7.094;2023-12-20T17:55:30;20.90;51.00
3699;DHT22;75064;50.922;7.094;2023-12-20T17:57:55;21.00;52.40
3699;DHT22;75064;50.922;7.094;2023-12-20T18:55:04;20.90;53.10
3699;DHT22;75064;50.922;7.094;2023-12-20T18:57:30;20.80;51.60
3699;DHT22;75064;50.922;7.094;2023-12-20T18:59:55;20.80;51.80
3699;DHT22;75064;50.922;7.094;2023-12-20T19:02:21;20.70;52.20
3699;DHT22;75064;50.922;7.094;2023-12-20T19:04:47;20.70;52.50
3699;DHT22;75064;50.922;7.094;2023-12-20T19:07:12;20.70;52.20
3699;DHT22;75064;50.922;7.094;2023-12-20T19:09:38;20.80;52.20
3699;DHT22;75064;50.922;7.094;2023-12-20T19:12:04;20.80;52.00
3699;DHT22;75064;50.922;7.094;2023-12-20T19:14:29;20.90;52.10
3699;DHT22;75064;50.922;7.094;2023-12-20T19:16:57;20.90;52.00
3699;DHT22;75064;50.922;7.094;2023-12-20T19:19:26;20.90;52.00
3699;DHT22;75064;50.922;7.094;2023-12-20T19:21:53;20.90;52.00
3699;DHT22;75064;50.922;7.094;2023-12-20T19:24:19;21.00;52.00
3699;DHT22;75064;50.922;7.094;2023-12-20T19:26:44;20.90;51.90
3699;DHT22;75064;50.922;7.094;2023-12-20T19:29:10;20.90;52.00
3699;DHT22;75064;50.922;7.094;2023-12-20T19:31:35;21.00;52.00
3699;DHT22;75064;50.922;7.094;2023-12-20T19:34:01;21.00;51.90
3699;DHT22;75064;50.922;7.094;2023-12-20T19:36:27;21.00;52.00
3699;DHT22;75064;50.922;7.094;2023-12-20T19:38:52;21.00;51.90
3699;DHT22;75064;50.922;7.094;2023-12-20T19:41:18;21.00;51.90
3699;DHT22;75064;50.922;7.094;2023-12-20T19:43:43;21.00;51.90
3699;DHT22;75064;50.922;7.094;2023-12-20T19:46:09;21.10;52.10
3699;DHT22;75064;50.922;7.094;2023-12-20T19:48:36;21.00;52.10
3699;DHT22;75064;50.922;7.094;2023-12-20T19:51:02;21.10;52.20
3699;DHT22;75064;50.922;7.094;2023-12-20T19:53:27;21.00;52.10
3699;DHT22;75064;50.922;7.094;2023-12-20T19:55:53;21.10;52.10
3699;DHT22;75064;50.922;7.094;2023-12-20T19:58:19;21.10;52.10
3699;DHT22;75064;50.922;7.094;2023-12-20T20:00:44;21.10;52.20
3699;DHT22;75064;50.922;7.094;2023-12-20T20:03:10;21.10;52.10
3699;DHT22;75064;50.922;7.094;2023-12-20T20:05:36;21.10;52.20
3699;DHT22;75064;50.922;7.094;2023-12-20T20:08:03;21.10;52.20
3699;DHT22;75064;50.922;7.094;2023-12-20T20:10:28;21.00;52.00
3699;DHT22;75064;50.922;7.094;2023-12-20T20:12:54;21.10;52.20
3699;DHT22;75064;50.922;7.094;2023-12-20T20:15:20;21.00;52.20
3699;DHT22;75064;50.922;7.094;2023-12-20T20:17:45;21.00;52.30
3699;DHT22;75064;50.922;7.094;2023-12-20T20:20:11;20.90;52.30
3699;DHT22;75064;50.922;7.094;2023-12-20T20:22:36;20.90;52.30
3699;DHT22;75064;50.922;7.094;2023-12-20T20:25:02;20.90;52.40
3699;DHT22;75064;50.922;7.094;2023-12-20T20:27:29;20.90;52.40
3699;DHT22;75064;50.922;7.094;2023-12-20T20:29:54;20.80;52.30
3699;DHT22;75064;50.922;7.094;2023-12-20T20:32:20;20.80;52.30
3699;DHT22;75064;50.922;7.094;2023-12-20T20:34:46;20.80;52.40
3699;DHT22;75064;50.922;7.094;2023-12-20T20:37:11;20.80;52.50
3699;DHT22;75064;50.922;7.094;2023-12-20T20:39:37;20.80;52.50
3699;DHT22;75064;50.922;7.094;2023-12-20T20:42:03;20.80;52.60
3699;DHT22;75064;50.922;7.094;2023-12-20T20:44:29;20.80;52.50
3699;DHT22;75064;50.922;7.094;2023-12-20T20:46:54;20.80;52.50
3699;DHT22;75064;50.922;7.094;2023-12-20T20:49:21;20.80;52.50
3699;DHT22;75064;50.922;7.094;2023-12-20T20:51:46;20.80;53.30
3699;DHT22;75064;50.922;7.094;2023-12-20T20:54:12;20.80;52.50
3699;DHT22;75064;50.922;7.094;2023-12-20T20:56:38;20.80;52.50
3699;DHT22;75064;50.922;7.094;2023-12-20T20:59:03;20.80;52.60
3699;DHT22;75064;50.922;7.094;2023-12-20T21:01:29;20.80;52.40
3699;DHT22;75064;50.922;7.094;2023-12-20T21:04:01;20.80;52.30
3699;DHT22;75064;50.922;7.094;2023-12-20T21:06:26;20.80;52.20
3699;DHT22;75064;50.922;7.094;2023-12-20T21:08:55;20.90;52.20
3699;DHT22;75064;50.922;7.094;2023-12-20T21:11:21;20.90;52.20
3699;DHT22;75064;50.922;7.094;2023-12-20T21:13:47;20.90;52.20
3699;DHT22;75064;50.922;7.094;2023-12-20T21:16:22;20.90;52.20
3699;DHT22;75064;50.922;7.094;2023-12-20T21:18:47;20.90;52.10
3699;DHT22;75064;50.922;7.094;2023-12-20T21:21:13;20.90;52.10
3699;DHT22;75064;50.922;7.094;2023-12-20T21:23:39;20.90;52.10
3699;DHT22;75064;50.922;7.094;2023-12-20T21:26:05;20.90;52.00
3699;DHT22;75064;50.922;7.094;2023-12-20T21:28:34;20.90;52.00
3699;DHT22;75064;50.922;7.094;2023-12-20T21:31:00;20.90;52.10
3699;DHT22;75064;50.922;7.094;2023-12-20T21:33:26;20.90;52.10
3699;DHT22;75064;50.922;7.094;2023-12-20T21:35:51;20.90;52.10
3699;DHT22;75064;50.922;7.094;2023-12-20T21:38:17;20.90;52.10
3699;DHT22;75064;50.922;7.094;2023-12-20T21:40:44;20.90;52.10
3699;DHT22;75064;50.922;7.094;2023-12-20T21:43:09;20.90;52.10
3699;DHT22;75064;50.922;7.094;2023-12-20T21:45:35;20.90;52.10
3699;DHT22;75064;50.922;7.094;2023-12-20T21:48:03;20.90;52.10
3699;DHT22;75064;50.922;7.094;2023-12-20T21:50:29;20.90;52.10
3699;DHT22;75064;50.922;7.094;2023-12-20T21:52:55;20.90;52.10
3699;DHT22;75064;50.922;7.094;2023-12-20T21:55:21;20.90;52.10
3699;DHT22;75064;50.922;7.094;2023-12-20T21:57:47;20.80;52.10
3699;DHT22;75064;50.922;7.094;2023-12-20T22:00:13;20.80;52.20
3699;DHT22;75064;50.922;7.094;2023-12-20T22:02:38;20.80;52.20
3699;DHT22;75064;50.922;7.094;2023-12-20T22:05:04;20.80;52.20
3699;DHT22;75064;50.922;7.094;2023-12-20T22:07:30;20.80;52.30
3699;DHT22;75064;50.922;7.094;2023-12-20T22:09:55;20.70;52.30
3699;DHT22;75064;50.922;7.094;2023-12-20T22:12:21;20.70;52.30
3699;DHT22;75064;50.922;7.094;2023-12-20T22:14:47;20.70;52.40
3699;DHT22;75064;50.922;7.094;2023-12-20T22:17:12;20.70;52.40
3699;DHT22;75064;50.922;7.094;2023-12-20T22:19:38;20.70;52.40
3699;DHT22;75064;50.922;7.094;2023-12-20T22:22:04;20.70;52.50
3699;DHT22;75064;50.922;7.094;2023-12-20T22:24:29;20.70;52.50
3699;DHT22;75064;50.922;7.094;2023-12-20T22:26:55;20.80;52.50
3699;DHT22;75064;50.922;7.094;2023-12-20T22:29:21;20.80;52.50
3699;DHT22;75064;50.922;7.094;2023-12-20T22:31:51;20.80;52.50
3699;DHT22;75064;50.922;7.094;2023-12-20T22:34:16;20.80;52.50
3699;DHT22;75064;50.922;7.094;2023-12-20T22:36:42;20.80;52.50
3699;DHT22;75064;50.922;7.094;2023-12-20T22:39:07;20.80;52.50
3699;DHT22;75064;50.922;7.094;2023-12-20T22:41:33;20.80;52.50
3699;DHT22;75064;50.922;7.094;2023-12-20T22:43:58;20.80;52.50
3699;DHT22;75064;50.922;7.094;2023-12-20T22:46:24;20.80;52.50
3699;DHT22;75064;50.922;7.094;2023-12-20T22:48:50;20.80;52.60
3699;DHT22;75064;50.922;7.094;2023-12-20T22:51:15;20.80;52.50
3699;DHT22;75064;50.922;7.094;2023-12-20T22:53:41;20.80;52.50
3699;DHT22;75064;50.922;7.094;2023-12-20T22:56:07;20.90;52.60
3699;DHT22;75064;50.922;7.094;2023-12-20T22:58:33;20.90;52.60
3699;DHT22;75064;50.922;7.094;2023-12-20T23:00:59;20.80;52.50
3699;DHT22;75064;50.922;7.094;2023-12-20T23:03:25;20.90;52.60
3699;DHT22;75064;50.922;7.094;2023-12-20T23:05:51;20.90;52.60
3699;DHT22;75064;50.922;7.094;2023-12-20T23:08:16;20.80;52.60
3699;DHT22;75064;50.922;7.094;2023-12-20T23:10:42;20.80;52.50
3699;DHT22;75064;50.922;7.094;2023-12-20T23:13:08;20.80;52.60
3699;DHT22;75064;50.922;7.094;2023-12-20T23:15:33;20.80;52.60
3699;DHT22;75064;50.922;7.094;2023-12-20T23:17:59;20.80;52.50
3699;DHT22;75064;50.922;7.094;2023-12-20T23:20:25;20.80;52.50
3699;DHT22;75064;50.922;7.094;2023-12-20T23:22:51;20.80;52.60
3699;DHT22;75064;50.922;7.094;2023-12-20T23:25:17;20.80;52.60
3699;DHT22;75064;50.922;7.094;2023-12-20T23:27:42;20.80;52.70
3699;DHT22;75064;50.922;7.094;2023-12-20T23:30:11;20.80;52.70
3699;DHT22;75064;50.922;7.094;2023-12-20T23:32:37;20.80;52.70
3699;DHT22;75064;50.922;7.094;2023-12-20T23:35:03;20.80;52.70
3699;DHT22;75064;50.922;7.094;2023-12-20T23:37:28;20.80;52.80
3699;DHT22;75064;50.922;7.094;2023-12-20T23:39:54;20.80;52.70
3699;DHT22;75064;50.922;7.094;2023-12-20T23:42:19;20.80;52.80
3699;DHT22;75064;50.922;7.094;2023-12-20T23:44:46;20.80;52.80
3699;DHT22;75064;50.922;7.094;2023-12-20T23:47:12;20.80;52.80
3699;DHT22;75064;50.922;7.094;2023-12-20T23:49:37;20.80;52.80
3699;DHT22;75064;50.922;7.094;2023-12-20T23:52:03;20.80;52.80
3699;DHT22;75064;50.922;7.094;2023-12-20T23:54:28;20.80;52.80
3699;DHT22;75064;50.922;7.094;2023-12-20T23:56:54;20.80;52.80
3699;DHT22;75064;50.922;7.094;2023-12-20T23:59:20;20.80;52.80
